sensor_id;sensor_type;location;lat;lon;timestamp;P1;durP1;ratioP1;P2;durP2;ratioP2
1460;SDS011;724;49.910;12.530;2023-05-07T00:01:16;8.80;;;8.30;;
1460;SDS011;724;49.910;12.530;2023-05-07T00:03:43;8.50;;;8.00;;
1460;SDS011;724;49.910;12.530;2023-05-07T00:06:10;8.55;;;8.05;;
1460;SDS011;724;49.910;12.530;2023-05-07T00:08:37;8.70;;;8.20;;
1460;SDS011;724;49.910;12.530;2023-05-07T00:11:09;8.95;;;8.45;;
1460;SDS011;724;49.910;12.530;2023-05-07T00:13:36;8.50;;;8.00;;
1460;SDS011;724;49.910;12.530;2023-05-07T00:16:04;9.10;;;8.60;;
1460;SDS011;724;49.910;12.530;2023-05-07T00:18:31;8.60;;;8.10;;
1460;SDS011;724;49.910;12.530;2023-05-07T00:20:58;7.93;;;7.53;;
1460;SDS011;724;49.910;12.530;2023-05-07T00:23:25;8.00;;;7.60;;
1460;SDS011;724;49.910;12.530;2023-05-07T00:25:55;7.70;;;7.30;;
1460;SDS011;724;49.910;12.530;2023-05-07T00:28:26;7.20;;;6.80;;
1460;SDS011;724;49.910;12.530;2023-05-07T00:30:54;7.10;;;6.70;;
1460;SDS011;724;49.910;12.530;2023-05-07T00:33:22;7.50;;;7.10;;
1460;SDS011;724;49.910;12.530;2023-05-07T00:35:51;7.60;;;7.20;;
1460;SDS011;724;49.910;12.530;2023-05-07T00:38:19;7.40;;;7.00;;
1460;SDS011;724;49.910;12.530;2023-05-07T00:40:47;7.40;;;7.00;;
1460;SDS011;724;49.910;12.530;2023-05-07T00:43:15;7.18;;;6.78;;
1460;SDS011;724;49.910;12.530;2023-05-07T00:45:44;7.30;;;6.90;;
1460;SDS011;724;49.910;12.530;2023-05-07T00:48:13;7.53;;;7.13;;
1460;SDS011;724;49.910;12.530;2023-05-07T00:50:40;7.00;;;6.60;;
1460;SDS011;724;49.910;12.530;2023-05-07T00:53:07;6.70;;;6.30;;
1460;SDS011;724;49.910;12.530;2023-05-07T00:55:37;6.07;;;5.78;;
1460;SDS011;724;49.910;12.530;2023-05-07T00:58:04;6.00;;;5.70;;
1460;SDS011;724;49.910;12.530;2023-05-07T01:00:32;5.90;;;5.60;;
1460;SDS011;724;49.910;12.530;2023-05-07T01:03:02;5.95;;;5.65;;
1460;SDS011;724;49.910;12.530;2023-05-07T01:05:34;5.57;;;5.28;;
1460;SDS011;724;49.910;12.530;2023-05-07T01:08:01;5.20;;;4.90;;
1460;SDS011;724;49.910;12.530;2023-05-07T01:10:32;5.30;;;5.00;;
1460;SDS011;724;49.910;12.530;2023-05-07T01:12:59;5.47;;;5.18;;
1460;SDS011;724;49.910;12.530;2023-05-07T01:15:27;5.07;;;4.78;;
1460;SDS011;724;49.910;12.530;2023-05-07T01:17:57;5.20;;;4.90;;
1460;SDS011;724;49.910;12.530;2023-05-07T01:20:25;5.35;;;5.05;;
1460;SDS011;724;49.910;12.530;2023-05-07T01:22:54;5.20;;;4.90;;
1460;SDS011;724;49.910;12.530;2023-05-07T01:25:25;4.65;;;4.35;;
1460;SDS011;724;49.910;12.530;2023-05-07T01:27:53;4.60;;;4.30;;
1460;SDS011;724;49.910;12.530;2023-05-07T01:30:20;3.75;;;3.55;;
1460;SDS011;724;49.910;12.530;2023-05-07T01:32:49;3.50;;;3.30;;
1460;SDS011;724;49.910;12.530;2023-05-07T01:35:20;3.70;;;3.50;;
1460;SDS011;724;49.910;12.530;2023-05-07T01:37:51;3.60;;;3.40;;
1460;SDS011;724;49.910;12.530;2023-05-07T01:40:21;3.70;;;3.50;;
1460;SDS011;724;49.910;12.530;2023-05-07T01:42:48;3.70;;;3.50;;
1460;SDS011;724;49.910;12.530;2023-05-07T01:45:16;3.60;;;3.40;;
1460;SDS011;724;49.910;12.530;2023-05-07T01:47:43;3.38;;;3.17;;
1460;SDS011;724;49.910;12.530;2023-05-07T01:50:11;3.05;;;2.85;;
1460;SDS011;724;49.910;12.530;2023-05-07T01:52:39;2.72;;;2.53;;
1460;SDS011;724;49.910;12.530;2023-05-07T01:55:06;2.60;;;2.40;;
1460;SDS011;724;49.910;12.530;2023-05-07T01:57:38;2.30;;;2.10;;
1460;SDS011;724;49.910;12.530;2023-05-07T02:00:08;2.40;;;2.20;;
1460;SDS011;724;49.910;12.530;2023-05-07T02:02:42;1.90;;;1.80;;
1460;SDS011;724;49.910;12.530;2023-05-07T02:05:10;1.80;;;1.70;;
1460;SDS011;724;49.910;12.530;2023-05-07T02:07:38;1.90;;;1.80;;
1460;SDS011;724;49.910;12.530;2023-05-07T02:10:06;1.50;;;1.40;;
1460;SDS011;724;49.910;12.530;2023-05-07T02:12:34;1.10;;;1.00;;
1460;SDS011;724;49.910;12.530;2023-05-07T02:15:08;0.90;;;0.80;;
1460;SDS011;724;49.910;12.530;2023-05-07T02:17:38;0.70;;;0.60;;
1460;SDS011;724;49.910;12.530;2023-05-07T02:20:26;0.50;;;0.40;;
1460;SDS011;724;49.910;12.530;2023-05-07T02:22:53;0.50;;;0.40;;
1460;SDS011;724;49.910;12.530;2023-05-07T02:25:21;0.60;;;0.50;;
1460;SDS011;724;49.910;12.530;2023-05-07T02:27:48;0.50;;;0.40;;
1460;SDS011;724;49.910;12.530;2023-05-07T02:30:17;0.70;;;0.60;;
1460;SDS011;724;49.910;12.530;2023-05-07T02:32:46;0.82;;;0.73;;
1460;SDS011;724;49.910;12.530;2023-05-07T02:35:14;1.05;;;0.95;;
1460;SDS011;724;49.910;12.530;2023-05-07T02:37:46;0.90;;;0.80;;
1460;SDS011;724;49.910;12.530;2023-05-07T02:40:14;1.00;;;0.90;;
1460;SDS011;724;49.910;12.530;2023-05-07T02:42:41;0.80;;;0.70;;
1460;SDS011;724;49.910;12.530;2023-05-07T02:45:12;0.90;;;0.80;;
1460;SDS011;724;49.910;12.530;2023-05-07T02:47:42;0.70;;;0.60;;
1460;SDS011;724;49.910;12.530;2023-05-07T02:50:10;0.70;;;0.60;;
1460;SDS011;724;49.910;12.530;2023-05-07T02:52:37;0.90;;;0.80;;
1460;SDS011;724;49.910;12.530;2023-05-07T02:55:04;0.70;;;0.60;;
1460;SDS011;724;49.910;12.530;2023-05-07T02:57:32;0.50;;;0.40;;
1460;SDS011;724;49.910;12.530;2023-05-07T03:00:09;0.40;;;0.30;;
1460;SDS011;724;49.910;12.530;2023-05-07T03:02:42;0.30;;;0.20;;
1460;SDS011;724;49.910;12.530;2023-05-07T03:05:10;0.28;;;0.17;;
1460;SDS011;724;49.910;12.530;2023-05-07T03:07:38;0.20;;;0.10;;
1460;SDS011;724;49.910;12.530;2023-05-07T03:10:05;0.20;;;0.10;;
1460;SDS011;724;49.910;12.530;2023-05-07T03:12:32;0.20;;;0.10;;
1460;SDS011;724;49.910;12.530;2023-05-07T03:14:59;0.20;;;0.10;;
1460;SDS011;724;49.910;12.530;2023-05-07T03:17:27;0.20;;;0.10;;
1460;SDS011;724;49.910;12.530;2023-05-07T03:19:55;0.05;;;0.03;;
1460;SDS011;724;49.910;12.530;2023-05-07T03:22:26;0.00;;;0.00;;
1460;SDS011;724;49.910;12.530;2023-05-07T03:24:53;0.00;;;0.00;;
1460;SDS011;724;49.910;12.530;2023-05-07T03:27:20;0.00;;;0.00;;
1460;SDS011;724;49.910;12.530;2023-05-07T03:29:47;0.00;;;0.00;;
1460;SDS011;724;49.910;12.530;2023-05-07T03:32:14;0.00;;;0.00;;
1460;SDS011;724;49.910;12.530;2023-05-07T03:34:41;0.00;;;0.00;;
1460;SDS011;724;49.910;12.530;2023-05-07T03:37:09;0.00;;;0.00;;
1460;SDS011;724;49.910;12.530;2023-05-07T03:39:36;0.00;;;0.00;;
1460;SDS011;724;49.910;12.530;2023-05-07T03:42:03;0.00;;;0.00;;
1460;SDS011;724;49.910;12.530;2023-05-07T03:44:33;0.00;;;0.00;;
1460;SDS011;724;49.910;12.530;2023-05-07T03:47:01;0.00;;;0.00;;
1460;SDS011;724;49.910;12.530;2023-05-07T03:49:29;0.00;;;0.00;;
1460;SDS011;724;49.910;12.530;2023-05-07T03:51:56;0.00;;;0.00;;
1460;SDS011;724;49.910;12.530;2023-05-07T03:54:24;0.00;;;0.00;;
1460;SDS011;724;49.910;12.530;2023-05-07T03:56:54;0.00;;;0.00;;
1460;SDS011;724;49.910;12.530;2023-05-07T03:59:22;0.00;;;0.00;;
1460;SDS011;724;49.910;12.530;2023-05-07T04:01:53;0.20;;;0.10;;
1460;SDS011;724;49.910;12.530;2023-05-07T04:04:20;0.05;;;0.03;;
1460;SDS011;724;49.910;12.530;2023-05-07T04:06:50;0.20;;;0.10;;
1460;SDS011;724;49.910;12.530;2023-05-07T04:09:16;0.20;;;0.10;;
1460;SDS011;724;49.910;12.530;2023-05-07T04:11:47;0.00;;;0.00;;
1460;SDS011;724;49.910;12.530;2023-05-07T04:14:14;0.00;;;0.00;;
1460;SDS011;724;49.910;12.530;2023-05-07T04:16:41;0.00;;;0.00;;
1460;SDS011;724;49.910;12.530;2023-05-07T04:19:08;0.00;;;0.00;;
1460;SDS011;724;49.910;12.530;2023-05-07T04:21:39;0.00;;;0.00;;
1460;SDS011;724;49.910;12.530;2023-05-07T04:24:06;0.00;;;0.00;;
1460;SDS011;724;49.910;12.530;2023-05-07T04:26:34;0.00;;;0.00;;
1460;SDS011;724;49.910;12.530;2023-05-07T04:29:02;0.00;;;0.00;;
1460;SDS011;724;49.910;12.530;2023-05-07T04:31:30;0.00;;;0.00;;
1460;SDS011;724;49.910;12.530;2023-05-07T04:33:57;0.00;;;0.00;;
1460;SDS011;724;49.910;12.530;2023-05-07T04:36:24;0.00;;;0.00;;
1460;SDS011;724;49.910;12.530;2023-05-07T04:38:52;0.00;;;0.00;;
1460;SDS011;724;49.910;12.530;2023-05-07T04:41:19;0.00;;;0.00;;
1460;SDS011;724;49.910;12.530;2023-05-07T04:43:46;0.00;;;0.00;;
1460;SDS011;724;49.910;12.530;2023-05-07T04:46:14;0.00;;;0.00;;
1460;SDS011;724;49.910;12.530;2023-05-07T04:48:44;0.00;;;0.00;;
1460;SDS011;724;49.910;12.530;2023-05-07T04:51:10;0.00;;;0.00;;
1460;SDS011;724;49.910;12.530;2023-05-07T04:53:37;0.00;;;0.00;;
1460;SDS011;724;49.910;12.530;2023-05-07T04:56:04;0.00;;;0.00;;
1460;SDS011;724;49.910;12.530;2023-05-07T04:58:33;0.00;;;0.00;;
1460;SDS011;724;49.910;12.530;2023-05-07T05:01:00;0.00;;;0.00;;
1460;SDS011;724;49.910;12.530;2023-05-07T05:03:28;0.00;;;0.00;;
1460;SDS011;724;49.910;12.530;2023-05-07T05:05:56;0.20;;;0.10;;
1460;SDS011;724;49.910;12.530;2023-05-07T05:08:24;0.20;;;0.10;;
1460;SDS011;724;49.910;12.530;2023-05-07T05:10:51;0.00;;;0.00;;
1460;SDS011;724;49.910;12.530;2023-05-07T05:13:18;0.00;;;0.00;;
1460;SDS011;724;49.910;12.530;2023-05-07T05:15:45;0.05;;;0.03;;
1460;SDS011;724;49.910;12.530;2023-05-07T05:18:12;0.00;;;0.00;;
1460;SDS011;724;49.910;12.530;2023-05-07T05:20:41;0.20;;;0.10;;
1460;SDS011;724;49.910;12.530;2023-05-07T05:23:09;0.20;;;0.10;;
1460;SDS011;724;49.910;12.530;2023-05-07T05:25:36;0.20;;;0.10;;
1460;SDS011;724;49.910;12.530;2023-05-07T05:28:04;0.00;;;0.00;;
1460;SDS011;724;49.910;12.530;2023-05-07T05:30:31;0.00;;;0.00;;
1460;SDS011;724;49.910;12.530;2023-05-07T05:32:57;0.20;;;0.10;;
1460;SDS011;724;49.910;12.530;2023-05-07T05:35:25;0.20;;;0.10;;
1460;SDS011;724;49.910;12.530;2023-05-07T05:37:53;0.20;;;0.10;;
1460;SDS011;724;49.910;12.530;2023-05-07T05:40:20;0.20;;;0.10;;
1460;SDS011;724;49.910;12.530;2023-05-07T05:42:48;0.20;;;0.10;;
1460;SDS011;724;49.910;12.530;2023-05-07T05:45:15;0.20;;;0.10;;
1460;SDS011;724;49.910;12.530;2023-05-07T05:47:43;0.20;;;0.10;;
1460;SDS011;724;49.910;12.530;2023-05-07T05:50:10;0.20;;;0.10;;
1460;SDS011;724;49.910;12.530;2023-05-07T05:52:37;0.20;;;0.10;;
1460;SDS011;724;49.910;12.530;2023-05-07T05:55:08;0.20;;;0.10;;
1460;SDS011;724;49.910;12.530;2023-05-07T05:57:35;0.00;;;0.00;;
1460;SDS011;724;49.910;12.530;2023-05-07T06:00:02;0.00;;;0.00;;
1460;SDS011;724;49.910;12.530;2023-05-07T06:02:30;0.00;;;0.00;;
1460;SDS011;724;49.910;12.530;2023-05-07T06:04:56;0.00;;;0.00;;
1460;SDS011;724;49.910;12.530;2023-05-07T06:07:23;0.00;;;0.00;;
1460;SDS011;724;49.910;12.530;2023-05-07T06:09:50;0.00;;;0.00;;
1460;SDS011;724;49.910;12.530;2023-05-07T06:12:18;0.00;;;0.00;;
1460;SDS011;724;49.910;12.530;2023-05-07T06:14:45;0.00;;;0.00;;
1460;SDS011;724;49.910;12.530;2023-05-07T06:17:12;0.00;;;0.00;;
1460;SDS011;724;49.910;12.530;2023-05-07T06:19:39;0.00;;;0.00;;
1460;SDS011;724;49.910;12.530;2023-05-07T06:22:07;0.00;;;0.00;;
1460;SDS011;724;49.910;12.530;2023-05-07T06:24:34;0.00;;;0.00;;
1460;SDS011;724;49.910;12.530;2023-05-07T06:27:00;0.00;;;0.00;;
1460;SDS011;724;49.910;12.530;2023-05-07T06:29:30;0.20;;;0.10;;
1460;SDS011;724;49.910;12.530;2023-05-07T06:32:21;0.20;;;0.10;;
1460;SDS011;724;49.910;12.530;2023-05-07T06:34:49;0.20;;;0.10;;
1460;SDS011;724;49.910;12.530;2023-05-07T06:37:20;0.20;;;0.10;;
1460;SDS011;724;49.910;12.530;2023-05-07T06:39:47;0.20;;;0.10;;
1460;SDS011;724;49.910;12.530;2023-05-07T06:42:17;0.20;;;0.10;;
1460;SDS011;724;49.910;12.530;2023-05-07T06:44:45;0.20;;;0.10;;
1460;SDS011;724;49.910;12.530;2023-05-07T06:47:12;0.20;;;0.10;;
1460;SDS011;724;49.910;12.530;2023-05-07T06:49:40;0.30;;;0.20;;
1460;SDS011;724;49.910;12.530;2023-05-07T06:52:07;0.30;;;0.20;;
1460;SDS011;724;49.910;12.530;2023-05-07T06:54:34;0.40;;;0.30;;
1460;SDS011;724;49.910;12.530;2023-05-07T06:57:04;0.40;;;0.30;;
1460;SDS011;724;49.910;12.530;2023-05-07T06:59:30;0.30;;;0.20;;
1460;SDS011;724;49.910;12.530;2023-05-07T07:01:59;0.40;;;0.30;;
1460;SDS011;724;49.910;12.530;2023-05-07T07:04:26;0.40;;;0.30;;
1460;SDS011;724;49.910;12.530;2023-05-07T07:06:53;0.50;;;0.40;;
1460;SDS011;724;49.910;12.530;2023-05-07T07:09:22;0.50;;;0.40;;
1460;SDS011;724;49.910;12.530;2023-05-07T07:11:49;0.40;;;0.30;;
1460;SDS011;724;49.910;12.530;2023-05-07T07:14:15;0.40;;;0.30;;
1460;SDS011;724;49.910;12.530;2023-05-07T07:16:48;0.40;;;0.30;;
1460;SDS011;724;49.910;12.530;2023-05-07T07:19:19;0.50;;;0.40;;
1460;SDS011;724;49.910;12.530;2023-05-07T07:21:48;0.60;;;0.50;;
1460;SDS011;724;49.910;12.530;2023-05-07T07:24:15;0.90;;;0.80;;
1460;SDS011;724;49.910;12.530;2023-05-07T07:26:45;1.13;;;1.02;;
1460;SDS011;724;49.910;12.530;2023-05-07T07:29:16;1.40;;;1.30;;
1460;SDS011;724;49.910;12.530;2023-05-07T07:31:43;1.70;;;1.60;;
1460;SDS011;724;49.910;12.530;2023-05-07T07:34:10;2.00;;;1.90;;
1460;SDS011;724;49.910;12.530;2023-05-07T07:36:38;2.80;;;2.60;;
1460;SDS011;724;49.910;12.530;2023-05-07T07:39:05;4.43;;;4.13;;
1460;SDS011;724;49.910;12.530;2023-05-07T07:41:32;5.60;;;5.30;;
1460;SDS011;724;49.910;12.530;2023-05-07T07:43:59;6.70;;;6.30;;
1460;SDS011;724;49.910;12.530;2023-05-07T07:46:25;6.80;;;6.40;;
1460;SDS011;724;49.910;12.530;2023-05-07T07:48:52;7.28;;;6.88;;
1460;SDS011;724;49.910;12.530;2023-05-07T07:51:19;8.20;;;7.80;;
1460;SDS011;724;49.910;12.530;2023-05-07T07:53:47;8.80;;;8.30;;
1460;SDS011;724;49.910;12.530;2023-05-07T07:56:15;10.30;;;9.80;;
1460;SDS011;724;49.910;12.530;2023-05-07T07:58:41;10.40;;;9.90;;
1460;SDS011;724;49.910;12.530;2023-05-07T08:01:08;11.37;;;10.77;;
1460;SDS011;724;49.910;12.530;2023-05-07T08:03:37;11.50;;;10.90;;
1460;SDS011;724;49.910;12.530;2023-05-07T08:06:14;11.43;;;10.83;;
1460;SDS011;724;49.910;12.530;2023-05-07T08:08:41;12.10;;;11.50;;
1460;SDS011;724;49.910;12.530;2023-05-07T08:11:12;12.10;;;11.50;;
1460;SDS011;724;49.910;12.530;2023-05-07T08:13:39;12.33;;;11.73;;
1460;SDS011;724;49.910;12.530;2023-05-07T08:16:08;12.00;;;11.40;;
1460;SDS011;724;49.910;12.530;2023-05-07T08:18:35;12.40;;;11.80;;
1460;SDS011;724;49.910;12.530;2023-05-07T08:21:04;12.43;;;11.83;;
1460;SDS011;724;49.910;12.530;2023-05-07T08:23:34;12.50;;;11.90;;
1460;SDS011;724;49.910;12.530;2023-05-07T08:26:01;12.80;;;12.10;;
1460;SDS011;724;49.910;12.530;2023-05-07T08:28:30;12.43;;;11.83;;
1460;SDS011;724;49.910;12.530;2023-05-07T08:31:03;12.57;;;11.93;;
1460;SDS011;724;49.910;12.530;2023-05-07T08:33:36;12.37;;;11.77;;
1460;SDS011;724;49.910;12.530;2023-05-07T08:36:03;12.90;;;12.20;;
1460;SDS011;724;49.910;12.530;2023-05-07T08:38:30;12.90;;;12.20;;
1460;SDS011;724;49.910;12.530;2023-05-07T08:40:57;12.80;;;12.10;;
1460;SDS011;724;49.910;12.530;2023-05-07T08:43:24;12.77;;;12.07;;
1460;SDS011;724;49.910;12.530;2023-05-07T08:45:54;12.80;;;12.10;;
1460;SDS011;724;49.910;12.530;2023-05-07T08:48:25;12.90;;;12.20;;
1460;SDS011;724;49.910;12.530;2023-05-07T08:50:53;13.10;;;12.40;;
1460;SDS011;724;49.910;12.530;2023-05-07T08:53:22;12.50;;;11.90;;
1460;SDS011;724;49.910;12.530;2023-05-07T08:55:49;12.90;;;12.20;;
1460;SDS011;724;49.910;12.530;2023-05-07T08:58:20;12.93;;;12.23;;
1460;SDS011;724;49.910;12.530;2023-05-07T09:00:46;13.20;;;12.50;;
1460;SDS011;724;49.910;12.530;2023-05-07T09:03:15;13.60;;;12.90;;
1460;SDS011;724;49.910;12.530;2023-05-07T09:05:43;13.50;;;12.80;;
1460;SDS011;724;49.910;12.530;2023-05-07T09:08:10;13.60;;;12.90;;
1460;SDS011;724;49.910;12.530;2023-05-07T09:10:43;13.70;;;13.00;;
1460;SDS011;724;49.910;12.530;2023-05-07T09:13:11;13.70;;;13.00;;
1460;SDS011;724;49.910;12.530;2023-05-07T09:15:39;13.83;;;13.13;;
1460;SDS011;724;49.910;12.530;2023-05-07T09:18:11;13.50;;;12.80;;
1460;SDS011;724;49.910;12.530;2023-05-07T09:20:41;13.70;;;13.00;;
1460;SDS011;724;49.910;12.530;2023-05-07T09:23:08;13.70;;;13.00;;
1460;SDS011;724;49.910;12.530;2023-05-07T09:25:35;13.80;;;13.10;;
1460;SDS011;724;49.910;12.530;2023-05-07T09:28:03;13.60;;;12.90;;
1460;SDS011;724;49.910;12.530;2023-05-07T09:30:31;13.80;;;13.10;;
1460;SDS011;724;49.910;12.530;2023-05-07T09:33:02;13.80;;;13.10;;
1460;SDS011;724;49.910;12.530;2023-05-07T09:35:30;13.40;;;12.70;;
1460;SDS011;724;49.910;12.530;2023-05-07T09:37:58;13.63;;;12.93;;
1460;SDS011;724;49.910;12.530;2023-05-07T09:40:30;13.80;;;13.10;;
1460;SDS011;724;49.910;12.530;2023-05-07T09:43:07;13.57;;;12.87;;
1460;SDS011;724;49.910;12.530;2023-05-07T09:45:38;13.70;;;13.00;;
1460;SDS011;724;49.910;12.530;2023-05-07T09:48:05;13.90;;;13.20;;
1460;SDS011;724;49.910;12.530;2023-05-07T09:50:39;13.70;;;13.00;;
1460;SDS011;724;49.910;12.530;2023-05-07T09:53:15;13.63;;;12.93;;
1460;SDS011;724;49.910;12.530;2023-05-07T09:55:46;14.20;;;13.50;;
1460;SDS011;724;49.910;12.530;2023-05-07T09:58:30;13.90;;;13.20;;
1460;SDS011;724;49.910;12.530;2023-05-07T10:01:05;13.80;;;13.10;;
1460;SDS011;724;49.910;12.530;2023-05-07T10:03:46;13.60;;;12.90;;
1460;SDS011;724;49.910;12.530;2023-05-07T10:06:15;14.00;;;13.30;;
1460;SDS011;724;49.910;12.530;2023-05-07T10:08:44;13.40;;;12.70;;
1460;SDS011;724;49.910;12.530;2023-05-07T10:11:10;13.70;;;13.00;;
1460;SDS011;724;49.910;12.530;2023-05-07T10:13:38;13.90;;;13.20;;
1460;SDS011;724;49.910;12.530;2023-05-07T10:16:07;14.00;;;13.30;;
1460;SDS011;724;49.910;12.530;2023-05-07T10:18:37;13.80;;;13.10;;
1460;SDS011;724;49.910;12.530;2023-05-07T10:21:07;13.60;;;12.90;;
1460;SDS011;724;49.910;12.530;2023-05-07T10:23:36;13.70;;;13.00;;
1460;SDS011;724;49.910;12.530;2023-05-07T10:26:06;13.90;;;13.20;;
1460;SDS011;724;49.910;12.530;2023-05-07T10:28:37;14.20;;;13.50;;
1460;SDS011;724;49.910;12.530;2023-05-07T10:31:14;14.33;;;13.63;;
1460;SDS011;724;49.910;12.530;2023-05-07T10:33:47;14.10;;;13.40;;
1460;SDS011;724;49.910;12.530;2023-05-07T10:36:17;14.10;;;13.40;;
1460;SDS011;724;49.910;12.530;2023-05-07T10:38:45;13.97;;;13.27;;
1460;SDS011;724;49.910;12.530;2023-05-07T10:41:13;13.80;;;13.10;;
1460;SDS011;724;49.910;12.530;2023-05-07T10:43:42;13.83;;;13.13;;
1460;SDS011;724;49.910;12.530;2023-05-07T10:46:11;13.90;;;13.20;;
1460;SDS011;724;49.910;12.530;2023-05-07T10:51:32;13.70;;;13.00;;
1460;SDS011;724;49.910;12.530;2023-05-07T10:54:19;13.60;;;12.90;;
1460;SDS011;724;49.910;12.530;2023-05-07T10:56:48;13.90;;;13.20;;
1460;SDS011;724;49.910;12.530;2023-05-07T11:02:08;13.80;;;13.10;;
1460;SDS011;724;49.910;12.530;2023-05-07T11:04:38;13.83;;;13.13;;
1460;SDS011;724;49.910;12.530;2023-05-07T11:07:14;13.70;;;13.00;;
1460;SDS011;724;49.910;12.530;2023-05-07T11:09:57;13.60;;;12.90;;
1460;SDS011;724;49.910;12.530;2023-05-07T11:15:14;13.30;;;12.60;;
1460;SDS011;724;49.910;12.530;2023-05-07T11:17:58;13.60;;;12.90;;
1460;SDS011;724;49.910;12.530;2023-05-07T11:26:23;13.50;;;12.80;;
1460;SDS011;724;49.910;12.530;2023-05-07T11:28:51;14.17;;;13.47;;
1460;SDS011;724;49.910;12.530;2023-05-07T11:31:23;14.00;;;13.30;;
1460;SDS011;724;49.910;12.530;2023-05-07T11:33:52;13.43;;;12.73;;
1460;SDS011;724;49.910;12.530;2023-05-07T11:36:23;14.20;;;13.50;;
1460;SDS011;724;49.910;12.530;2023-05-07T11:38:51;13.90;;;13.20;;
1460;SDS011;724;49.910;12.530;2023-05-07T11:41:17;13.53;;;12.83;;
1460;SDS011;724;49.910;12.530;2023-05-07T11:43:54;13.57;;;12.87;;
1460;SDS011;724;49.910;12.530;2023-05-07T11:46:22;13.50;;;12.80;;
1460;SDS011;724;49.910;12.530;2023-05-07T11:48:49;13.90;;;13.20;;
1460;SDS011;724;49.910;12.530;2023-05-07T11:51:19;13.30;;;12.60;;
1460;SDS011;724;49.910;12.530;2023-05-07T11:53:47;13.57;;;12.87;;
1460;SDS011;724;49.910;12.530;2023-05-07T11:56:15;13.70;;;13.00;;
1460;SDS011;724;49.910;12.530;2023-05-07T11:58:43;13.90;;;13.20;;
1460;SDS011;724;49.910;12.530;2023-05-07T12:01:13;14.00;;;13.30;;
1460;SDS011;724;49.910;12.530;2023-05-07T12:03:42;14.17;;;13.47;;
1460;SDS011;724;49.910;12.530;2023-05-07T12:06:11;14.20;;;13.50;;
1460;SDS011;724;49.910;12.530;2023-05-07T12:08:38;14.10;;;13.40;;
1460;SDS011;724;49.910;12.530;2023-05-07T12:11:07;14.13;;;13.43;;
1460;SDS011;724;49.910;12.530;2023-05-07T12:13:36;14.40;;;13.70;;
1460;SDS011;724;49.910;12.530;2023-05-07T12:16:04;14.00;;;13.30;;
1460;SDS011;724;49.910;12.530;2023-05-07T12:18:33;14.17;;;13.47;;
1460;SDS011;724;49.910;12.530;2023-05-07T12:21:01;13.90;;;13.20;;
1460;SDS011;724;49.910;12.530;2023-05-07T12:23:29;14.10;;;13.40;;
1460;SDS011;724;49.910;12.530;2023-05-07T12:25:56;13.93;;;13.23;;
1460;SDS011;724;49.910;12.530;2023-05-07T12:28:23;14.10;;;13.40;;
1460;SDS011;724;49.910;12.530;2023-05-07T12:30:50;14.20;;;13.50;;
1460;SDS011;724;49.910;12.530;2023-05-07T12:33:19;14.40;;;13.70;;
1460;SDS011;724;49.910;12.530;2023-05-07T12:35:54;14.20;;;13.50;;
1460;SDS011;724;49.910;12.530;2023-05-07T12:38:22;14.20;;;13.50;;
1460;SDS011;724;49.910;12.530;2023-05-07T12:40:49;14.20;;;13.50;;
1460;SDS011;724;49.910;12.530;2023-05-07T12:43:19;14.10;;;13.40;;
1460;SDS011;724;49.910;12.530;2023-05-07T12:45:47;13.80;;;13.10;;
1460;SDS011;724;49.910;12.530;2023-05-07T12:48:15;13.90;;;13.20;;
1460;SDS011;724;49.910;12.530;2023-05-07T12:50:42;14.03;;;13.33;;
1460;SDS011;724;49.910;12.530;2023-05-07T12:53:11;14.10;;;13.40;;
1460;SDS011;724;49.910;12.530;2023-05-07T12:55:42;14.13;;;13.43;;
1460;SDS011;724;49.910;12.530;2023-05-07T12:58:14;13.90;;;13.20;;
1460;SDS011;724;49.910;12.530;2023-05-07T13:00:44;13.30;;;12.60;;
1460;SDS011;724;49.910;12.530;2023-05-07T13:03:17;13.50;;;12.80;;
1460;SDS011;724;49.910;12.530;2023-05-07T13:05:47;13.70;;;13.00;;
1460;SDS011;724;49.910;12.530;2023-05-07T13:08:24;13.80;;;13.10;;
1460;SDS011;724;49.910;12.530;2023-05-07T13:10:51;13.60;;;12.90;;
1460;SDS011;724;49.910;12.530;2023-05-07T13:13:19;13.80;;;13.10;;
1460;SDS011;724;49.910;12.530;2023-05-07T13:15:46;13.60;;;12.90;;
1460;SDS011;724;49.910;12.530;2023-05-07T13:18:12;13.80;;;13.10;;
1460;SDS011;724;49.910;12.530;2023-05-07T13:20:39;13.50;;;12.80;;
1460;SDS011;724;49.910;12.530;2023-05-07T13:23:06;13.60;;;12.90;;
1460;SDS011;724;49.910;12.530;2023-05-07T13:25:34;13.87;;;13.17;;
1460;SDS011;724;49.910;12.530;2023-05-07T13:28:06;13.77;;;13.07;;
1460;SDS011;724;49.910;12.530;2023-05-07T13:31:01;13.30;;;12.60;;
1460;SDS011;724;49.910;12.530;2023-05-07T13:33:29;13.63;;;12.93;;
1460;SDS011;724;49.910;12.530;2023-05-07T13:35:55;13.10;;;12.40;;
1460;SDS011;724;49.910;12.530;2023-05-07T13:38:23;13.10;;;12.40;;
1460;SDS011;724;49.910;12.530;2023-05-07T13:40:51;13.33;;;12.63;;
1460;SDS011;724;49.910;12.530;2023-05-07T13:43:18;13.73;;;13.03;;
1460;SDS011;724;49.910;12.530;2023-05-07T13:45:45;13.70;;;13.00;;
1460;SDS011;724;49.910;12.530;2023-05-07T13:48:11;13.30;;;12.60;;
1460;SDS011;724;49.910;12.530;2023-05-07T13:50:38;13.20;;;12.50;;
1460;SDS011;724;49.910;12.530;2023-05-07T13:53:05;12.70;;;12.00;;
1460;SDS011;724;49.910;12.530;2023-05-07T13:55:32;13.40;;;12.70;;
1460;SDS011;724;49.910;12.530;2023-05-07T13:58:00;13.00;;;12.30;;
1460;SDS011;724;49.910;12.530;2023-05-07T14:00:29;13.30;;;12.60;;
1460;SDS011;724;49.910;12.530;2023-05-07T14:02:55;13.77;;;13.07;;
1460;SDS011;724;49.910;12.530;2023-05-07T14:05:22;13.50;;;12.80;;
1460;SDS011;724;49.910;12.530;2023-05-07T14:07:49;12.90;;;12.20;;
1460;SDS011;724;49.910;12.530;2023-05-07T14:10:17;13.00;;;12.30;;
1460;SDS011;724;49.910;12.530;2023-05-07T14:12:46;13.50;;;12.80;;
1460;SDS011;724;49.910;12.530;2023-05-07T14:15:14;13.13;;;12.43;;
1460;SDS011;724;49.910;12.530;2023-05-07T14:17:41;13.20;;;12.50;;
1460;SDS011;724;49.910;12.530;2023-05-07T14:20:09;12.87;;;12.17;;
1460;SDS011;724;49.910;12.530;2023-05-07T14:22:36;11.90;;;11.30;;
1460;SDS011;724;49.910;12.530;2023-05-07T14:25:03;12.20;;;11.60;;
1460;SDS011;724;49.910;12.530;2023-05-07T14:27:31;12.20;;;11.60;;
1460;SDS011;724;49.910;12.530;2023-05-07T14:29:57;12.20;;;11.60;;
1460;SDS011;724;49.910;12.530;2023-05-07T14:32:25;12.20;;;11.60;;
1460;SDS011;724;49.910;12.530;2023-05-07T14:34:52;11.90;;;11.30;;
1460;SDS011;724;49.910;12.530;2023-05-07T14:37:19;12.10;;;11.50;;
1460;SDS011;724;49.910;12.530;2023-05-07T14:39:46;12.30;;;11.70;;
1460;SDS011;724;49.910;12.530;2023-05-07T14:42:12;12.30;;;11.70;;
1460;SDS011;724;49.910;12.530;2023-05-07T14:44:39;12.30;;;11.70;;
1460;SDS011;724;49.910;12.530;2023-05-07T14:47:06;11.83;;;11.23;;
1460;SDS011;724;49.910;12.530;2023-05-07T14:49:35;12.30;;;11.70;;
1460;SDS011;724;49.910;12.530;2023-05-07T14:52:01;12.30;;;11.70;;
1460;SDS011;724;49.910;12.530;2023-05-07T14:54:29;12.50;;;11.90;;
1460;SDS011;724;49.910;12.530;2023-05-07T14:56:56;12.63;;;11.97;;
1460;SDS011;724;49.910;12.530;2023-05-07T14:59:22;12.70;;;12.00;;
1460;SDS011;724;49.910;12.530;2023-05-07T15:01:50;12.80;;;12.10;;
1460;SDS011;724;49.910;12.530;2023-05-07T15:04:17;12.20;;;11.60;;
1460;SDS011;724;49.910;12.530;2023-05-07T15:06:45;12.40;;;11.80;;
1460;SDS011;724;49.910;12.530;2023-05-07T15:09:12;12.30;;;11.70;;
1460;SDS011;724;49.910;12.530;2023-05-07T15:11:40;12.30;;;11.70;;
1460;SDS011;724;49.910;12.530;2023-05-07T15:14:07;12.10;;;11.50;;
1460;SDS011;724;49.910;12.530;2023-05-07T15:16:34;12.50;;;11.90;;
1460;SDS011;724;49.910;12.530;2023-05-07T15:19:01;12.70;;;12.00;;
1460;SDS011;724;49.910;12.530;2023-05-07T15:21:28;12.40;;;11.80;;
1460;SDS011;724;49.910;12.530;2023-05-07T15:23:57;12.20;;;11.60;;
1460;SDS011;724;49.910;12.530;2023-05-07T15:26:23;12.20;;;11.60;;